sensor_id;sensor_type;location;lat;lon;timestamp;P1;durP1;ratioP1;P2;durP2;ratioP2
34920;SDS011;21128;50.016;20.002;2022-07-23T00:01:29;15.20;;;9.30;;
34920;SDS011;21128;50.016;20.002;2022-07-23T00:03:56;15.63;;;8.77;;
34920;SDS011;21128;50.016;20.002;2022-07-23T00:06:24;14.87;;;8.60;;
34920;SDS011;21128;50.016;20.002;2022-07-23T00:09:05;13.23;;;8.00;;
34920;SDS011;21128;50.016;20.002;2022-07-23T00:11:31;12.37;;;8.50;;
34920;SDS011;21128;50.016;20.002;2022-07-23T00:13:58;16.00;;;8.93;;
34920;SDS011;21128;50.016;20.002;2022-07-23T00:16:32;13.22;;;8.73;;
34920;SDS011;21128;50.016;20.002;2022-07-23T00:18:58;12.60;;;8.80;;
34920;SDS011;21128;50.016;20.002;2022-07-23T00:21:27;14.17;;;8.43;;
34920;SDS011;21128;50.016;20.002;2022-07-23T00:23:54;12.93;;;8.43;;
34920;SDS011;21128;50.016;20.002;2022-07-23T00:26:21;14.03;;;8.87;;
34920;SDS011;21128;50.016;20.002;2022-07-23T00:28:48;11.53;;;8.50;;
34920;SDS011;21128;50.016;20.002;2022-07-23T00:31:22;14.47;;;9.25;;
34920;SDS011;21128;50.016;20.002;2022-07-23T00:33:55;12.30;;;8.67;;
34920;SDS011;21128;50.016;20.002;2022-07-23T00:36:27;14.57;;;9.83;;
34920;SDS011;21128;50.016;20.002;2022-07-23T00:39:01;13.00;;;8.73;;
34920;SDS011;21128;50.016;20.002;2022-07-23T00:41:28;18.63;;;8.90;;
34920;SDS011;21128;50.016;20.002;2022-07-23T00:43:55;12.07;;;8.37;;
34920;SDS011;21128;50.016;20.002;2022-07-23T00:46:44;15.50;;;9.00;;
34920;SDS011;21128;50.016;20.002;2022-07-23T00:49:15;13.87;;;8.37;;
34920;SDS011;21128;50.016;20.002;2022-07-23T00:51:42;19.80;;;9.23;;
34920;SDS011;21128;50.016;20.002;2022-07-23T00:54:09;16.87;;;9.17;;
34920;SDS011;21128;50.016;20.002;2022-07-23T00:56:36;11.93;;;7.73;;
34920;SDS011;21128;50.016;20.002;2022-07-23T00:59:05;13.30;;;8.40;;
34920;SDS011;21128;50.016;20.002;2022-07-23T01:01:33;19.30;;;8.20;;
34920;SDS011;21128;50.016;20.002;2022-07-23T01:04:00;14.35;;;8.35;;
34920;SDS011;21128;50.016;20.002;2022-07-23T01:06:34;13.18;;;8.90;;
34920;SDS011;21128;50.016;20.002;2022-07-23T01:09:10;15.87;;;9.67;;
34920;SDS011;21128;50.016;20.002;2022-07-23T01:11:43;10.87;;;8.73;;
34920;SDS011;21128;50.016;20.002;2022-07-23T01:14:11;16.55;;;9.15;;
34920;SDS011;21128;50.016;20.002;2022-07-23T01:16:49;16.10;;;9.13;;
34920;SDS011;21128;50.016;20.002;2022-07-23T01:19:22;13.73;;;9.30;;
34920;SDS011;21128;50.016;20.002;2022-07-23T01:21:50;15.63;;;8.53;;
34920;SDS011;21128;50.016;20.002;2022-07-23T01:24:18;16.90;;;9.00;;
34920;SDS011;21128;50.016;20.002;2022-07-23T01:26:46;11.40;;;9.00;;
34920;SDS011;21128;50.016;20.002;2022-07-23T01:29:14;14.47;;;9.10;;
34920;SDS011;21128;50.016;20.002;2022-07-23T01:31:42;12.80;;;8.97;;
34920;SDS011;21128;50.016;20.002;2022-07-23T01:34:09;19.87;;;10.17;;
34920;SDS011;21128;50.016;20.002;2022-07-23T01:36:37;12.23;;;8.78;;
34920;SDS011;21128;50.016;20.002;2022-07-23T01:39:05;17.43;;;9.07;;
34920;SDS011;21128;50.016;20.002;2022-07-23T01:41:33;10.77;;;8.50;;
34920;SDS011;21128;50.016;20.002;2022-07-23T01:44:00;16.50;;;8.90;;
34920;SDS011;21128;50.016;20.002;2022-07-23T01:46:28;12.23;;;8.20;;
34920;SDS011;21128;50.016;20.002;2022-07-23T01:48:55;14.65;;;7.80;;
34920;SDS011;21128;50.016;20.002;2022-07-23T01:51:22;12.43;;;7.83;;
34920;SDS011;21128;50.016;20.002;2022-07-23T01:53:49;11.60;;;8.30;;
34920;SDS011;21128;50.016;20.002;2022-07-23T01:56:15;14.40;;;8.07;;
34920;SDS011;21128;50.016;20.002;2022-07-23T01:58:42;11.23;;;7.97;;
34920;SDS011;21128;50.016;20.002;2022-07-23T02:01:09;13.40;;;8.50;;
34920;SDS011;21128;50.016;20.002;2022-07-23T02:03:36;11.55;;;8.65;;
34920;SDS011;21128;50.016;20.002;2022-07-23T02:06:02;12.33;;;8.00;;
34920;SDS011;21128;50.016;20.002;2022-07-23T02:08:29;13.63;;;8.47;;
34920;SDS011;21128;50.016;20.002;2022-07-23T02:11:02;14.13;;;8.43;;
34920;SDS011;21128;50.016;20.002;2022-07-23T02:13:36;12.83;;;7.73;;
34920;SDS011;21128;50.016;20.002;2022-07-23T02:16:03;15.23;;;8.77;;
34920;SDS011;21128;50.016;20.002;2022-07-23T02:18:37;11.60;;;9.07;;
34920;SDS011;21128;50.016;20.002;2022-07-23T02:21:04;16.47;;;8.10;;
34920;SDS011;21128;50.016;20.002;2022-07-23T02:23:31;17.20;;;8.77;;
34920;SDS011;21128;50.016;20.002;2022-07-23T02:25:57;13.05;;;8.38;;
34920;SDS011;21128;50.016;20.002;2022-07-23T02:28:24;14.65;;;9.10;;
34920;SDS011;21128;50.016;20.002;2022-07-23T02:30:51;16.23;;;9.67;;
34920;SDS011;21128;50.016;20.002;2022-07-23T02:35:51;13.10;;;8.07;;
34920;SDS011;21128;50.016;20.002;2022-07-23T02:38:17;11.65;;;8.35;;
34920;SDS011;21128;50.016;20.002;2022-07-23T02:40:44;15.75;;;8.70;;
34920;SDS011;21128;50.016;20.002;2022-07-23T02:43:11;12.80;;;8.10;;
34920;SDS011;21128;50.016;20.002;2022-07-23T02:45:38;15.93;;;8.90;;
34920;SDS011;21128;50.016;20.002;2022-07-23T02:48:04;15.87;;;8.80;;
34920;SDS011;21128;50.016;20.002;2022-07-23T02:50:31;11.93;;;8.58;;
34920;SDS011;21128;50.016;20.002;2022-07-23T02:52:58;12.85;;;8.65;;
34920;SDS011;21128;50.016;20.002;2022-07-23T02:55:25;17.63;;;7.97;;
34920;SDS011;21128;50.016;20.002;2022-07-23T02:57:52;14.10;;;8.23;;
34920;SDS011;21128;50.016;20.002;2022-07-23T03:00:19;11.90;;;7.57;;
34920;SDS011;21128;50.016;20.002;2022-07-23T03:02:46;13.90;;;7.58;;
34920;SDS011;21128;50.016;20.002;2022-07-23T03:05:13;13.67;;;8.77;;
34920;SDS011;21128;50.016;20.002;2022-07-23T03:07:40;18.03;;;9.20;;
34920;SDS011;21128;50.016;20.002;2022-07-23T03:10:13;13.13;;;7.83;;
34920;SDS011;21128;50.016;20.002;2022-07-23T03:12:53;16.30;;;8.30;;
34920;SDS011;21128;50.016;20.002;2022-07-23T03:15:20;15.58;;;8.30;;
34920;SDS011;21128;50.016;20.002;2022-07-23T03:17:47;13.70;;;7.97;;
34920;SDS011;21128;50.016;20.002;2022-07-23T03:20:27;12.13;;;7.53;;
34920;SDS011;21128;50.016;20.002;2022-07-23T03:23:00;12.43;;;7.63;;
34920;SDS011;21128;50.016;20.002;2022-07-23T03:25:34;21.67;;;8.20;;
34920;SDS011;21128;50.016;20.002;2022-07-23T03:28:00;13.13;;;7.47;;
34920;SDS011;21128;50.016;20.002;2022-07-23T03:30:27;17.10;;;9.30;;
34920;SDS011;21128;50.016;20.002;2022-07-23T03:32:54;11.55;;;8.80;;
34920;SDS011;21128;50.016;20.002;2022-07-23T03:35:21;18.50;;;8.90;;
34920;SDS011;21128;50.016;20.002;2022-07-23T03:37:47;14.40;;;8.23;;
34920;SDS011;21128;50.016;20.002;2022-07-23T03:40:14;13.95;;;8.00;;
34920;SDS011;21128;50.016;20.002;2022-07-23T03:42:41;17.90;;;7.57;;
34920;SDS011;21128;50.016;20.002;2022-07-23T03:45:09;12.40;;;7.55;;
34920;SDS011;21128;50.016;20.002;2022-07-23T03:47:36;12.17;;;7.67;;
34920;SDS011;21128;50.016;20.002;2022-07-23T03:50:03;13.90;;;8.57;;
34920;SDS011;21128;50.016;20.002;2022-07-23T03:52:30;11.80;;;7.75;;
34920;SDS011;21128;50.016;20.002;2022-07-23T03:54:57;12.30;;;7.97;;
34920;SDS011;21128;50.016;20.002;2022-07-23T03:57:30;10.43;;;8.43;;
34920;SDS011;21128;50.016;20.002;2022-07-23T03:59:57;16.10;;;8.55;;
34920;SDS011;21128;50.016;20.002;2022-07-23T04:02:24;11.20;;;8.27;;
34920;SDS011;21128;50.016;20.002;2022-07-23T04:04:51;12.73;;;7.67;;
34920;SDS011;21128;50.016;20.002;2022-07-23T04:07:18;11.43;;;8.30;;
34920;SDS011;21128;50.016;20.002;2022-07-23T04:09:51;12.07;;;8.40;;
34920;SDS011;21128;50.016;20.002;2022-07-23T04:12:18;13.90;;;7.90;;
34920;SDS011;21128;50.016;20.002;2022-07-23T04:14:45;14.93;;;7.90;;
34920;SDS011;21128;50.016;20.002;2022-07-23T04:17:12;15.90;;;8.90;;
34920;SDS011;21128;50.016;20.002;2022-07-23T04:19:46;13.93;;;9.23;;
34920;SDS011;21128;50.016;20.002;2022-07-23T04:22:12;20.70;;;9.97;;
34920;SDS011;21128;50.016;20.002;2022-07-23T04:24:39;17.17;;;9.60;;
34920;SDS011;21128;50.016;20.002;2022-07-23T04:27:06;16.43;;;10.40;;
34920;SDS011;21128;50.016;20.002;2022-07-23T04:29:33;16.87;;;9.70;;
34920;SDS011;21128;50.016;20.002;2022-07-23T04:32:06;23.37;;;9.47;;
34920;SDS011;21128;50.016;20.002;2022-07-23T04:34:33;13.10;;;8.97;;
34920;SDS011;21128;50.016;20.002;2022-07-23T04:37:06;18.87;;;10.00;;
34920;SDS011;21128;50.016;20.002;2022-07-23T04:39:33;14.73;;;9.20;;
34920;SDS011;21128;50.016;20.002;2022-07-23T04:42:00;11.63;;;8.90;;
34920;SDS011;21128;50.016;20.002;2022-07-23T04:44:27;10.13;;;8.47;;
34920;SDS011;21128;50.016;20.002;2022-07-23T04:47:00;12.93;;;8.50;;
34920;SDS011;21128;50.016;20.002;2022-07-23T04:49:27;16.23;;;9.63;;
34920;SDS011;21128;50.016;20.002;2022-07-23T04:51:56;15.47;;;9.17;;
34920;SDS011;21128;50.016;20.002;2022-07-23T04:54:22;12.90;;;9.13;;
34920;SDS011;21128;50.016;20.002;2022-07-23T04:56:49;17.40;;;9.03;;
34920;SDS011;21128;50.016;20.002;2022-07-23T04:59:16;13.78;;;8.55;;
34920;SDS011;21128;50.016;20.002;2022-07-23T05:01:42;13.03;;;8.00;;
34920;SDS011;21128;50.016;20.002;2022-07-23T05:04:09;12.37;;;8.03;;
34920;SDS011;21128;50.016;20.002;2022-07-23T05:06:36;12.50;;;8.45;;
34920;SDS011;21128;50.016;20.002;2022-07-23T05:09:10;12.70;;;8.63;;
34920;SDS011;21128;50.016;20.002;2022-07-23T05:11:43;12.93;;;8.30;;
34920;SDS011;21128;50.016;20.002;2022-07-23T05:14:10;16.67;;;8.60;;
34920;SDS011;21128;50.016;20.002;2022-07-23T05:16:38;15.80;;;8.95;;
34920;SDS011;21128;50.016;20.002;2022-07-23T05:19:05;13.90;;;7.97;;
34920;SDS011;21128;50.016;20.002;2022-07-23T05:21:39;15.37;;;8.03;;
34920;SDS011;21128;50.016;20.002;2022-07-23T05:24:06;11.70;;;7.78;;
34920;SDS011;21128;50.016;20.002;2022-07-23T05:26:33;14.40;;;8.13;;
34920;SDS011;21128;50.016;20.002;2022-07-23T05:29:00;11.63;;;7.93;;
34920;SDS011;21128;50.016;20.002;2022-07-23T05:31:26;10.93;;;7.43;;
34920;SDS011;21128;50.016;20.002;2022-07-23T05:34:00;10.20;;;7.73;;
34920;SDS011;21128;50.016;20.002;2022-07-23T05:36:26;11.70;;;7.57;;
34920;SDS011;21128;50.016;20.002;2022-07-23T05:39:00;13.47;;;7.97;;
34920;SDS011;21128;50.016;20.002;2022-07-23T05:41:27;13.13;;;7.97;;
34920;SDS011;21128;50.016;20.002;2022-07-23T05:43:54;12.93;;;6.73;;
34920;SDS011;21128;50.016;20.002;2022-07-23T05:46:21;11.83;;;7.37;;
34920;SDS011;21128;50.016;20.002;2022-07-23T05:48:48;11.50;;;7.10;;
34920;SDS011;21128;50.016;20.002;2022-07-23T05:51:22;10.37;;;7.40;;
34920;SDS011;21128;50.016;20.002;2022-07-23T05:53:49;11.63;;;7.27;;
34920;SDS011;21128;50.016;20.002;2022-07-23T05:56:17;15.97;;;7.70;;
34920;SDS011;21128;50.016;20.002;2022-07-23T05:58:45;11.37;;;7.47;;
34920;SDS011;21128;50.016;20.002;2022-07-23T06:01:12;10.78;;;7.40;;
34920;SDS011;21128;50.016;20.002;2022-07-23T06:03:39;9.73;;;7.00;;
34920;SDS011;21128;50.016;20.002;2022-07-23T06:06:06;10.08;;;7.60;;
34920;SDS011;21128;50.016;20.002;2022-07-23T06:08:33;14.60;;;7.53;;
34920;SDS011;21128;50.016;20.002;2022-07-23T06:11:06;13.07;;;7.23;;
34920;SDS011;21128;50.016;20.002;2022-07-23T06:13:40;16.17;;;7.03;;
34920;SDS011;21128;50.016;20.002;2022-07-23T06:16:07;11.37;;;7.27;;
34920;SDS011;21128;50.016;20.002;2022-07-23T06:18:34;9.53;;;7.28;;
34920;SDS011;21128;50.016;20.002;2022-07-23T06:21:00;15.20;;;8.00;;
34920;SDS011;21128;50.016;20.002;2022-07-23T06:23:27;13.67;;;8.00;;
34920;SDS011;21128;50.016;20.002;2022-07-23T06:25:54;10.83;;;7.63;;
34920;SDS011;21128;50.016;20.002;2022-07-23T06:28:21;11.57;;;8.40;;
34920;SDS011;21128;50.016;20.002;2022-07-23T06:30:47;12.23;;;8.27;;
34920;SDS011;21128;50.016;20.002;2022-07-23T06:33:14;14.30;;;8.30;;
34920;SDS011;21128;50.016;20.002;2022-07-23T06:35:41;13.87;;;8.40;;
34920;SDS011;21128;50.016;20.002;2022-07-23T06:38:08;16.23;;;8.97;;
34920;SDS011;21128;50.016;20.002;2022-07-23T06:40:42;11.47;;;8.50;;
34920;SDS011;21128;50.016;20.002;2022-07-23T06:43:08;15.93;;;8.40;;
34920;SDS011;21128;50.016;20.002;2022-07-23T06:45:35;16.23;;;9.20;;
34920;SDS011;21128;50.016;20.002;2022-07-23T06:48:03;11.40;;;7.90;;
34920;SDS011;21128;50.016;20.002;2022-07-23T06:50:30;13.90;;;8.35;;
34920;SDS011;21128;50.016;20.002;2022-07-23T06:52:56;13.07;;;8.80;;
34920;SDS011;21128;50.016;20.002;2022-07-23T06:55:23;14.83;;;8.03;;
34920;SDS011;21128;50.016;20.002;2022-07-23T06:57:50;12.33;;;8.60;;
34920;SDS011;21128;50.016;20.002;2022-07-23T07:00:17;17.40;;;8.45;;
34920;SDS011;21128;50.016;20.002;2022-07-23T07:02:44;14.50;;;8.43;;
34920;SDS011;21128;50.016;20.002;2022-07-23T07:05:10;14.17;;;9.07;;
34920;SDS011;21128;50.016;20.002;2022-07-23T07:07:37;11.30;;;8.80;;
34920;SDS011;21128;50.016;20.002;2022-07-23T07:10:04;13.87;;;8.87;;
34920;SDS011;21128;50.016;20.002;2022-07-23T07:12:38;22.73;;;9.33;;
34920;SDS011;21128;50.016;20.002;2022-07-23T07:15:11;14.73;;;7.77;;
34920;SDS011;21128;50.016;20.002;2022-07-23T07:17:38;12.97;;;8.27;;
34920;SDS011;21128;50.016;20.002;2022-07-23T07:20:06;14.70;;;8.57;;
34920;SDS011;21128;50.016;20.002;2022-07-23T07:22:39;15.00;;;9.23;;
34920;SDS011;21128;50.016;20.002;2022-07-23T07:25:06;12.85;;;8.83;;
34920;SDS011;21128;50.016;20.002;2022-07-23T07:27:34;14.75;;;8.45;;
34920;SDS011;21128;50.016;20.002;2022-07-23T07:30:01;16.97;;;8.80;;
34920;SDS011;21128;50.016;20.002;2022-07-23T07:32:29;16.10;;;8.98;;
34920;SDS011;21128;50.016;20.002;2022-07-23T07:35:05;12.20;;;8.55;;
34920;SDS011;21128;50.016;20.002;2022-07-23T07:37:32;11.27;;;8.70;;
34920;SDS011;21128;50.016;20.002;2022-07-23T07:39:59;14.43;;;9.03;;
34920;SDS011;21128;50.016;20.002;2022-07-23T07:42:26;20.80;;;9.80;;
34920;SDS011;21128;50.016;20.002;2022-07-23T07:44:53;13.10;;;8.60;;
34920;SDS011;21128;50.016;20.002;2022-07-23T07:47:20;14.10;;;8.37;;
34920;SDS011;21128;50.016;20.002;2022-07-23T07:49:46;12.40;;;8.93;;
34920;SDS011;21128;50.016;20.002;2022-07-23T07:52:13;11.60;;;8.17;;
34920;SDS011;21128;50.016;20.002;2022-07-23T07:54:40;10.20;;;8.45;;
34920;SDS011;21128;50.016;20.002;2022-07-23T07:57:07;15.30;;;8.55;;
34920;SDS011;21128;50.016;20.002;2022-07-23T07:59:33;15.67;;;8.97;;
34920;SDS011;21128;50.016;20.002;2022-07-23T08:02:00;12.33;;;8.80;;
34920;SDS011;21128;50.016;20.002;2022-07-23T08:04:29;10.67;;;8.47;;
34920;SDS011;21128;50.016;20.002;2022-07-23T08:06:55;18.57;;;8.67;;
34920;SDS011;21128;50.016;20.002;2022-07-23T08:09:22;14.63;;;8.77;;
34920;SDS011;21128;50.016;20.002;2022-07-23T08:11:49;16.80;;;8.93;;
34920;SDS011;21128;50.016;20.002;2022-07-23T08:14:24;16.77;;;8.70;;
34920;SDS011;21128;50.016;20.002;2022-07-23T08:16:58;11.97;;;8.63;;
34920;SDS011;21128;50.016;20.002;2022-07-23T08:19:24;12.73;;;8.90;;
34920;SDS011;21128;50.016;20.002;2022-07-23T08:21:51;12.33;;;8.08;;
34920;SDS011;21128;50.016;20.002;2022-07-23T08:24:18;11.20;;;7.60;;
34920;SDS011;21128;50.016;20.002;2022-07-23T08:26:45;14.70;;;8.03;;
34920;SDS011;21128;50.016;20.002;2022-07-23T08:29:12;9.77;;;7.90;;
34920;SDS011;21128;50.016;20.002;2022-07-23T08:31:39;12.90;;;7.83;;
34920;SDS011;21128;50.016;20.002;2022-07-23T08:34:06;10.93;;;7.67;;
34920;SDS011;21128;50.016;20.002;2022-07-23T08:36:40;15.95;;;8.35;;
34920;SDS011;21128;50.016;20.002;2022-07-23T08:39:06;13.70;;;8.27;;
34920;SDS011;21128;50.016;20.002;2022-07-23T08:41:33;11.07;;;7.53;;
34920;SDS011;21128;50.016;20.002;2022-07-23T08:44:00;11.23;;;7.27;;
34920;SDS011;21128;50.016;20.002;2022-07-23T08:46:28;13.70;;;7.73;;
34920;SDS011;21128;50.016;20.002;2022-07-23T08:48:55;16.63;;;8.87;;
34920;SDS011;21128;50.016;20.002;2022-07-23T08:51:23;11.53;;;7.83;;
34920;SDS011;21128;50.016;20.002;2022-07-23T08:53:53;13.97;;;7.80;;
34920;SDS011;21128;50.016;20.002;2022-07-23T08:56:23;20.87;;;7.97;;
34920;SDS011;21128;50.016;20.002;2022-07-23T08:58:50;12.00;;;7.47;;
34920;SDS011;21128;50.016;20.002;2022-07-23T09:01:19;9.40;;;7.93;;
34920;SDS011;21128;50.016;20.002;2022-07-23T09:03:46;12.53;;;8.23;;
34920;SDS011;21128;50.016;20.002;2022-07-23T09:06:19;12.50;;;6.93;;
34920;SDS011;21128;50.016;20.002;2022-07-23T09:08:46;12.93;;;7.50;;
34920;SDS011;21128;50.016;20.002;2022-07-23T09:11:15;16.07;;;7.57;;
34920;SDS011;21128;50.016;20.002;2022-07-23T09:13:50;12.40;;;6.57;;
34920;SDS011;21128;50.016;20.002;2022-07-23T09:16:25;11.00;;;7.13;;
34920;SDS011;21128;50.016;20.002;2022-07-23T09:19:05;8.77;;;7.73;;
34920;SDS011;21128;50.016;20.002;2022-07-23T09:21:35;11.67;;;7.37;;
34920;SDS011;21128;50.016;20.002;2022-07-23T09:24:09;8.33;;;7.28;;
34920;SDS011;21128;50.016;20.002;2022-07-23T09:26:38;12.75;;;6.42;;
34920;SDS011;21128;50.016;20.002;2022-07-23T09:31:59;11.60;;;6.97;;
34920;SDS011;21128;50.016;20.002;2022-07-23T09:34:35;9.23;;;6.17;;
34920;SDS011;21128;50.016;20.002;2022-07-23T09:37:16;10.07;;;6.73;;
34920;SDS011;21128;50.016;20.002;2022-07-23T09:39:45;8.93;;;6.90;;
34920;SDS011;21128;50.016;20.002;2022-07-23T09:42:15;12.83;;;6.70;;
34920;SDS011;21128;50.016;20.002;2022-07-23T09:44:45;8.60;;;6.63;;
34920;SDS011;21128;50.016;20.002;2022-07-23T09:47:17;9.70;;;6.60;;
34920;SDS011;21128;50.016;20.002;2022-07-23T09:49:57;8.47;;;6.57;;
34920;SDS011;21128;50.016;20.002;2022-07-23T09:52:33;10.90;;;6.85;;
34920;SDS011;21128;50.016;20.002;2022-07-23T09:55:08;10.73;;;6.50;;
34920;SDS011;21128;50.016;20.002;2022-07-23T09:57:35;8.43;;;6.70;;
34920;SDS011;21128;50.016;20.002;2022-07-23T10:00:06;7.13;;;6.43;;
34920;SDS011;21128;50.016;20.002;2022-07-23T10:02:36;8.70;;;5.67;;
34920;SDS011;21128;50.016;20.002;2022-07-23T10:05:04;9.03;;;5.87;;
34920;SDS011;21128;50.016;20.002;2022-07-23T10:07:39;7.90;;;5.30;;
34920;SDS011;21128;50.016;20.002;2022-07-23T10:10:06;5.70;;;5.17;;
34920;SDS011;21128;50.016;20.002;2022-07-23T10:12:46;13.43;;;6.30;;
34920;SDS011;21128;50.016;20.002;2022-07-23T10:17:58;7.17;;;5.80;;
34920;SDS011;21128;50.016;20.002;2022-07-23T10:20:25;6.75;;;4.95;;
34920;SDS011;21128;50.016;20.002;2022-07-23T10:23:02;7.87;;;5.67;;
34920;SDS011;21128;50.016;20.002;2022-07-23T10:28:46;8.27;;;5.33;;
34920;SDS011;21128;50.016;20.002;2022-07-23T10:31:50;9.50;;;5.40;;
34920;SDS011;21128;50.016;20.002;2022-07-23T10:39:35;6.67;;;4.80;;
34920;SDS011;21128;50.016;20.002;2022-07-23T10:42:10;6.63;;;5.03;;
34920;SDS011;21128;50.016;20.002;2022-07-23T10:44:47;7.03;;;5.33;;
34920;SDS011;21128;50.016;20.002;2022-07-23T10:47:35;6.97;;;5.23;;
34920;SDS011;21128;50.016;20.002;2022-07-23T10:50:26;7.30;;;5.35;;
34920;SDS011;21128;50.016;20.002;2022-07-23T10:55:46;9.70;;;5.00;;
34920;SDS011;21128;50.016;20.002;2022-07-23T10:58:19;7.03;;;4.73;;
34920;SDS011;21128;50.016;20.002;2022-07-23T11:00:59;6.60;;;4.60;;
34920;SDS011;21128;50.016;20.002;2022-07-23T11:03:28;13.00;;;5.20;;
34920;SDS011;21128;50.016;20.002;2022-07-23T11:05:58;9.45;;;4.97;;
34920;SDS011;21128;50.016;20.002;2022-07-23T11:08:32;8.03;;;5.73;;
34920;SDS011;21128;50.016;20.002;2022-07-23T11:13:37;12.27;;;5.40;;
34920;SDS011;21128;50.016;20.002;2022-07-23T11:16:12;7.20;;;5.03;;
34920;SDS011;21128;50.016;20.002;2022-07-23T11:18:57;11.97;;;6.50;;
34920;SDS011;21128;50.016;20.002;2022-07-23T11:21:40;10.03;;;5.17;;
34920;SDS011;21128;50.016;20.002;2022-07-23T11:24:09;5.57;;;4.70;;
34920;SDS011;21128;50.016;20.002;2022-07-23T11:34:46;7.63;;;4.23;;
34920;SDS011;21128;50.016;20.002;2022-07-23T11:37:35;6.43;;;4.80;;
34920;SDS011;21128;50.016;20.002;2022-07-23T11:40:10;6.20;;;4.23;;
34920;SDS011;21128;50.016;20.002;2022-07-23T11:42:40;4.90;;;4.23;;
34920;SDS011;21128;50.016;20.002;2022-07-23T11:45:34;4.63;;;4.20;;
34920;SDS011;21128;50.016;20.002;2022-07-23T11:48:03;7.73;;;4.60;;
34920;SDS011;21128;50.016;20.002;2022-07-23T11:50:32;34.43;;;5.87;;
34920;SDS011;21128;50.016;20.002;2022-07-23T11:52:59;6.27;;;4.30;;
34920;SDS011;21128;50.016;20.002;2022-07-23T11:55:26;7.65;;;4.45;;
34920;SDS011;21128;50.016;20.002;2022-07-23T11:57:55;5.10;;;4.50;;
34920;SDS011;21128;50.016;20.002;2022-07-23T12:00:22;8.63;;;4.60;;
34920;SDS011;21128;50.016;20.002;2022-07-23T12:02:56;5.70;;;4.00;;
34920;SDS011;21128;50.016;20.002;2022-07-23T12:05:31;13.25;;;5.00;;
34920;SDS011;21128;50.016;20.002;2022-07-23T12:08:07;7.63;;;4.43;;
34920;SDS011;21128;50.016;20.002;2022-07-23T12:10:39;8.53;;;4.93;;
34920;SDS011;21128;50.016;20.002;2022-07-23T12:13:21;5.33;;;4.40;;
34920;SDS011;21128;50.016;20.002;2022-07-23T12:15:52;7.07;;;4.67;;
34920;SDS011;21128;50.016;20.002;2022-07-23T12:18:21;5.83;;;5.03;;
34920;SDS011;21128;50.016;20.002;2022-07-23T12:21:02;6.50;;;5.17;;
34920;SDS011;21128;50.016;20.002;2022-07-23T12:23:31;6.17;;;5.00;;
34920;SDS011;21128;50.016;20.002;2022-07-23T12:26:00;7.05;;;4.30;;
34920;SDS011;21128;50.016;20.002;2022-07-23T12:28:29;6.70;;;4.73;;
34920;SDS011;21128;50.016;20.002;2022-07-23T12:31:10;6.75;;;4.70;;
34920;SDS011;21128;50.016;20.002;2022-07-23T12:33:39;7.33;;;4.73;;
34920;SDS011;21128;50.016;20.002;2022-07-23T12:36:08;7.00;;;4.30;;
34920;SDS011;21128;50.016;20.002;2022-07-23T12:38:42;6.60;;;4.60;;
34920;SDS011;21128;50.016;20.002;2022-07-23T12:41:22;5.57;;;4.80;;
34920;SDS011;21128;50.016;20.002;2022-07-23T12:43:49;7.27;;;4.90;;
34920;SDS011;21128;50.016;20.002;2022-07-23T12:46:19;5.17;;;4.30;;
34920;SDS011;21128;50.016;20.002;2022-07-23T12:51:29;7.00;;;4.37;;
34920;SDS011;21128;50.016;20.002;2022-07-23T12:54:03;7.67;;;4.43;;
34920;SDS011;21128;50.016;20.002;2022-07-23T12:56:34;5.50;;;4.03;;
34920;SDS011;21128;50.016;20.002;2022-07-23T12:59:07;5.10;;;4.13;;
34920;SDS011;21128;50.016;20.002;2022-07-23T13:01:43;5.70;;;4.40;;
34920;SDS011;21128;50.016;20.002;2022-07-23T13:04:25;4.90;;;4.23;;
34920;SDS011;21128;50.016;20.002;2022-07-23T13:06:54;4.80;;;4.23;;
34920;SDS011;21128;50.016;20.002;2022-07-23T13:09:29;6.20;;;4.67;;
34920;SDS011;21128;50.016;20.002;2022-07-23T13:11:57;4.70;;;4.30;;
34920;SDS011;21128;50.016;20.002;2022-07-23T13:14:37;8.77;;;4.53;;
34920;SDS011;21128;50.016;20.002;2022-07-23T13:17:04;5.17;;;4.72;;
34920;SDS011;21128;50.016;20.002;2022-07-23T13:19:31;7.60;;;5.00;;
34920;SDS011;21128;50.016;20.002;2022-07-23T13:21:58;4.73;;;4.33;;
34920;SDS011;21128;50.016;20.002;2022-07-23T13:24:25;6.47;;;4.77;;
34920;SDS011;21128;50.016;20.002;2022-07-23T13:26:51;9.33;;;5.20;;
34920;SDS011;21128;50.016;20.002;2022-07-23T13:29:24;8.43;;;4.47;;
34920;SDS011;21128;50.016;20.002;2022-07-23T13:31:51;5.67;;;4.80;;
34920;SDS011;21128;50.016;20.002;2022-07-23T13:34:18;5.58;;;5.05;;
34920;SDS011;21128;50.016;20.002;2022-07-23T13:36:44;5.33;;;4.77;;
34920;SDS011;21128;50.016;20.002;2022-07-23T13:39:11;5.60;;;4.60;;
34920;SDS011;21128;50.016;20.002;2022-07-23T13:41:45;8.90;;;5.20;;
34920;SDS011;21128;50.016;20.002;2022-07-23T13:44:12;5.40;;;4.45;;
34920;SDS011;21128;50.016;20.002;2022-07-23T13:46:38;9.43;;;5.40;;
34920;SDS011;21128;50.016;20.002;2022-07-23T13:49:05;6.80;;;5.12;;
34920;SDS011;21128;50.016;20.002;2022-07-23T13:51:32;5.83;;;5.30;;
34920;SDS011;21128;50.016;20.002;2022-07-23T13:53:59;9.87;;;5.77;;
34920;SDS011;21128;50.016;20.002;2022-07-23T13:56:25;8.47;;;5.17;;
34920;SDS011;21128;50.016;20.002;2022-07-23T13:58:53;8.57;;;6.47;;
34920;SDS011;21128;50.016;20.002;2022-07-23T14:01:26;7.53;;;5.47;;
34920;SDS011;21128;50.016;20.002;2022-07-23T14:03:53;10.27;;;5.60;;
34920;SDS011;21128;50.016;20.002;2022-07-23T14:06:20;6.33;;;5.73;;
34920;SDS011;21128;50.016;20.002;2022-07-23T14:08:47;6.00;;;5.27;;
34920;SDS011;21128;50.016;20.002;2022-07-23T14:11:14;7.93;;;4.70;;
34920;SDS011;21128;50.016;20.002;2022-07-23T14:13:54;6.95;;;5.30;;
34920;SDS011;21128;50.016;20.002;2022-07-23T14:16:21;9.45;;;5.35;;
34920;SDS011;21128;50.016;20.002;2022-07-23T14:18:47;8.90;;;5.03;;
34920;SDS011;21128;50.016;20.002;2022-07-23T14:21:14;6.20;;;5.60;;
34920;SDS011;21128;50.016;20.002;2022-07-23T14:23:41;6.27;;;5.60;;
34920;SDS011;21128;50.016;20.002;2022-07-23T14:26:08;7.93;;;5.87;;
34920;SDS011;21128;50.016;20.002;2022-07-23T14:28:35;8.63;;;6.10;;
34920;SDS011;21128;50.016;20.002;2022-07-23T14:31:02;6.13;;;5.43;;
34920;SDS011;21128;50.016;20.002;2022-07-23T14:33:35;6.17;;;5.33;;
34920;SDS011;21128;50.016;20.002;2022-07-23T14:36:02;7.70;;;5.70;;
34920;SDS011;21128;50.016;20.002;2022-07-23T14:38:29;7.40;;;5.33;;
34920;SDS011;21128;50.016;20.002;2022-07-23T14:40:57;8.08;;;5.45;;
34920;SDS011;21128;50.016;20.002;2022-07-23T14:43:36;7.10;;;5.70;;
34920;SDS011;21128;50.016;20.002;2022-07-23T14:46:03;5.80;;;5.20;;
34920;SDS011;21128;50.016;20.002;2022-07-23T14:48:31;7.07;;;5.70;;
34920;SDS011;21128;50.016;20.002;2022-07-23T14:50:58;11.17;;;5.57;;
34920;SDS011;21128;50.016;20.002;2022-07-23T14:53:31;7.53;;;5.70;;
34920;SDS011;21128;50.016;20.002;2022-07-23T14:55:58;10.10;;;5.90;;
34920;SDS011;21128;50.016;20.002;2022-07-23T14:58:24;9.55;;;5.40;;
34920;SDS011;21128;50.016;20.002;2022-07-23T15:00:51;7.27;;;5.40;;
34920;SDS011;21128;50.016;20.002;2022-07-23T15:03:18;9.07;;;5.90;;
34920;SDS011;21128;50.016;20.002;2022-07-23T15:05:45;6.73;;;5.60;;
34920;SDS011;21128;50.016;20.002;2022-07-23T15:08:18;9.23;;;5.70;;
34920;SDS011;21128;50.016;20.002;2022-07-23T15:10:45;6.73;;;5.90;;
34920;SDS011;21128;50.016;20.002;2022-07-23T15:13:24;23.63;;;6.30;;